sensor_id;sensor_type;location;lat;lon;timestamp;P1;durP1;ratioP1;P2;durP2;ratioP2
7021;SDS011;3552;42.664;23.406;2022-07-29T00:00:14;11.57;;;8.57;;
7021;SDS011;3552;42.664;23.406;2022-07-29T00:02:42;9.87;;;8.37;;
7021;SDS011;3552;42.664;23.406;2022-07-29T00:05:09;9.93;;;8.37;;
7021;SDS011;3552;42.664;23.406;2022-07-29T00:07:38;10.83;;;8.80;;
7021;SDS011;3552;42.664;23.406;2022-07-29T00:10:07;10.60;;;8.83;;
7021;SDS011;3552;42.664;23.406;2022-07-29T00:12:35;10.93;;;8.80;;
7021;SDS011;3552;42.664;23.406;2022-07-29T00:15:02;9.60;;;8.53;;
7021;SDS011;3552;42.664;23.406;2022-07-29T00:17:30;12.17;;;9.07;;
7021;SDS011;3552;42.664;23.406;2022-07-29T00:19:59;10.67;;;9.03;;
7021;SDS011;3552;42.664;23.406;2022-07-29T00:22:27;12.07;;;8.83;;
7021;SDS011;3552;42.664;23.406;2022-07-29T00:24:55;12.03;;;9.07;;
7021;SDS011;3552;42.664;23.406;2022-07-29T00:27:23;11.80;;;9.17;;
7021;SDS011;3552;42.664;23.406;2022-07-29T00:29:50;10.33;;;9.10;;
7021;SDS011;3552;42.664;23.406;2022-07-29T00:32:17;14.37;;;9.63;;
7021;SDS011;3552;42.664;23.406;2022-07-29T00:34:44;15.10;;;10.80;;
7021;SDS011;3552;42.664;23.406;2022-07-29T00:37:28;11.83;;;9.67;;
7021;SDS011;3552;42.664;23.406;2022-07-29T00:39:57;12.83;;;10.27;;
7021;SDS011;3552;42.664;23.406;2022-07-29T00:42:25;11.90;;;10.27;;
7021;SDS011;3552;42.664;23.406;2022-07-29T00:44:53;13.03;;;10.23;;
7021;SDS011;3552;42.664;23.406;2022-07-29T00:47:20;13.33;;;9.37;;
7021;SDS011;3552;42.664;23.406;2022-07-29T00:49:47;19.77;;;9.70;;
7021;SDS011;3552;42.664;23.406;2022-07-29T00:52:14;15.63;;;10.47;;
7021;SDS011;3552;42.664;23.406;2022-07-29T00:54:41;13.17;;;10.80;;
7021;SDS011;3552;42.664;23.406;2022-07-29T00:57:08;13.70;;;10.67;;
7021;SDS011;3552;42.664;23.406;2022-07-29T00:59:37;13.97;;;11.50;;
7021;SDS011;3552;42.664;23.406;2022-07-29T01:02:04;16.70;;;11.53;;
7021;SDS011;3552;42.664;23.406;2022-07-29T01:04:31;12.50;;;11.10;;
7021;SDS011;3552;42.664;23.406;2022-07-29T01:06:59;12.33;;;11.03;;
7021;SDS011;3552;42.664;23.406;2022-07-29T01:09:29;11.37;;;9.80;;
7021;SDS011;3552;42.664;23.406;2022-07-29T01:11:58;12.43;;;11.13;;
7021;SDS011;3552;42.664;23.406;2022-07-29T01:14:26;14.63;;;9.07;;
7021;SDS011;3552;42.664;23.406;2022-07-29T01:16:58;14.80;;;11.70;;
7021;SDS011;3552;42.664;23.406;2022-07-29T01:19:41;17.10;;;10.77;;
7021;SDS011;3552;42.664;23.406;2022-07-29T01:22:19;12.77;;;10.90;;
7021;SDS011;3552;42.664;23.406;2022-07-29T01:25:02;14.13;;;10.40;;
7021;SDS011;3552;42.664;23.406;2022-07-29T01:27:53;11.10;;;8.70;;
7021;SDS011;3552;42.664;23.406;2022-07-29T01:30:36;10.70;;;8.93;;
7021;SDS011;3552;42.664;23.406;2022-07-29T01:33:06;9.20;;;8.20;;
7021;SDS011;3552;42.664;23.406;2022-07-29T01:36:00;9.13;;;8.10;;
7021;SDS011;3552;42.664;23.406;2022-07-29T01:38:34;12.27;;;8.50;;
7021;SDS011;3552;42.664;23.406;2022-07-29T01:41:05;9.87;;;8.03;;
7021;SDS011;3552;42.664;23.406;2022-07-29T01:43:38;9.43;;;8.43;;
7021;SDS011;3552;42.664;23.406;2022-07-29T01:46:11;12.70;;;7.87;;
7021;SDS011;3552;42.664;23.406;2022-07-29T01:48:42;9.50;;;8.30;;
7021;SDS011;3552;42.664;23.406;2022-07-29T01:51:14;15.13;;;8.73;;
7021;SDS011;3552;42.664;23.406;2022-07-29T01:53:46;13.43;;;8.80;;
7021;SDS011;3552;42.664;23.406;2022-07-29T01:56:21;10.63;;;9.53;;
7021;SDS011;3552;42.664;23.406;2022-07-29T01:58:51;11.27;;;8.73;;
7021;SDS011;3552;42.664;23.406;2022-07-29T02:01:21;12.03;;;9.10;;
7021;SDS011;3552;42.664;23.406;2022-07-29T02:03:50;9.53;;;8.53;;
7021;SDS011;3552;42.664;23.406;2022-07-29T02:06:19;9.90;;;8.77;;
7021;SDS011;3552;42.664;23.406;2022-07-29T02:08:50;9.23;;;8.27;;
7021;SDS011;3552;42.664;23.406;2022-07-29T02:11:20;11.07;;;8.97;;
7021;SDS011;3552;42.664;23.406;2022-07-29T02:13:49;12.17;;;9.03;;
7021;SDS011;3552;42.664;23.406;2022-07-29T02:16:17;11.77;;;8.57;;
7021;SDS011;3552;42.664;23.406;2022-07-29T02:18:53;11.60;;;8.50;;
7021;SDS011;3552;42.664;23.406;2022-07-29T02:21:23;11.03;;;8.60;;
7021;SDS011;3552;42.664;23.406;2022-07-29T02:23:53;11.13;;;8.93;;
7021;SDS011;3552;42.664;23.406;2022-07-29T02:26:23;11.47;;;8.97;;
7021;SDS011;3552;42.664;23.406;2022-07-29T02:28:52;10.93;;;8.90;;
7021;SDS011;3552;42.664;23.406;2022-07-29T02:31:26;12.93;;;9.23;;
7021;SDS011;3552;42.664;23.406;2022-07-29T02:33:56;14.27;;;9.43;;
7021;SDS011;3552;42.664;23.406;2022-07-29T02:36:23;10.80;;;9.57;;
7021;SDS011;3552;42.664;23.406;2022-07-29T02:38:52;11.23;;;9.80;;
7021;SDS011;3552;42.664;23.406;2022-07-29T02:41:23;11.00;;;9.90;;
7021;SDS011;3552;42.664;23.406;2022-07-29T02:43:57;11.43;;;9.70;;
7021;SDS011;3552;42.664;23.406;2022-07-29T02:46:32;14.00;;;9.50;;
7021;SDS011;3552;42.664;23.406;2022-07-29T02:49:02;15.23;;;10.87;;
7021;SDS011;3552;42.664;23.406;2022-07-29T02:51:40;13.07;;;10.20;;
7021;SDS011;3552;42.664;23.406;2022-07-29T02:54:18;17.23;;;10.23;;
7021;SDS011;3552;42.664;23.406;2022-07-29T02:56:48;16.43;;;10.70;;
7021;SDS011;3552;42.664;23.406;2022-07-29T02:59:21;13.77;;;11.27;;
7021;SDS011;3552;42.664;23.406;2022-07-29T03:01:55;13.47;;;10.83;;
7021;SDS011;3552;42.664;23.406;2022-07-29T03:04:25;13.30;;;11.13;;
7021;SDS011;3552;42.664;23.406;2022-07-29T03:06:54;17.17;;;11.10;;
7021;SDS011;3552;42.664;23.406;2022-07-29T03:09:24;14.37;;;10.73;;
7021;SDS011;3552;42.664;23.406;2022-07-29T03:11:52;15.03;;;11.87;;
7021;SDS011;3552;42.664;23.406;2022-07-29T03:14:21;14.20;;;12.60;;
7021;SDS011;3552;42.664;23.406;2022-07-29T03:16:49;15.47;;;12.67;;
7021;SDS011;3552;42.664;23.406;2022-07-29T03:19:19;15.80;;;13.10;;
7021;SDS011;3552;42.664;23.406;2022-07-29T03:21:47;16.50;;;13.67;;
7021;SDS011;3552;42.664;23.406;2022-07-29T03:24:26;21.13;;;13.60;;
7021;SDS011;3552;42.664;23.406;2022-07-29T03:26:57;15.30;;;13.50;;
7021;SDS011;3552;42.664;23.406;2022-07-29T03:29:25;19.23;;;13.40;;
7021;SDS011;3552;42.664;23.406;2022-07-29T03:31:53;19.30;;;15.50;;
7021;SDS011;3552;42.664;23.406;2022-07-29T03:34:21;18.00;;;14.20;;
7021;SDS011;3552;42.664;23.406;2022-07-29T03:36:48;17.17;;;14.50;;
7021;SDS011;3552;42.664;23.406;2022-07-29T03:39:18;19.07;;;15.63;;
7021;SDS011;3552;42.664;23.406;2022-07-29T03:41:49;20.23;;;16.83;;
7021;SDS011;3552;42.664;23.406;2022-07-29T03:44:20;31.67;;;22.33;;
7021;SDS011;3552;42.664;23.406;2022-07-29T03:46:50;30.53;;;23.90;;
7021;SDS011;3552;42.664;23.406;2022-07-29T03:49:19;43.93;;;30.57;;
7021;SDS011;3552;42.664;23.406;2022-07-29T03:51:49;46.37;;;31.90;;
7021;SDS011;3552;42.664;23.406;2022-07-29T03:54:16;45.47;;;29.33;;
7021;SDS011;3552;42.664;23.406;2022-07-29T03:56:43;32.97;;;21.33;;
7021;SDS011;3552;42.664;23.406;2022-07-29T03:59:12;25.90;;;15.90;;
7021;SDS011;3552;42.664;23.406;2022-07-29T04:01:41;21.83;;;13.13;;
7021;SDS011;3552;42.664;23.406;2022-07-29T04:04:11;14.63;;;11.80;;
7021;SDS011;3552;42.664;23.406;2022-07-29T04:06:40;12.33;;;11.07;;
7021;SDS011;3552;42.664;23.406;2022-07-29T04:09:08;12.17;;;10.20;;
7021;SDS011;3552;42.664;23.406;2022-07-29T04:11:36;13.10;;;10.33;;
7021;SDS011;3552;42.664;23.406;2022-07-29T04:14:04;15.73;;;11.40;;
7021;SDS011;3552;42.664;23.406;2022-07-29T04:16:33;17.30;;;10.20;;
7021;SDS011;3552;42.664;23.406;2022-07-29T04:19:00;17.83;;;13.00;;
7021;SDS011;3552;42.664;23.406;2022-07-29T04:21:27;23.13;;;15.80;;
7021;SDS011;3552;42.664;23.406;2022-07-29T04:23:56;26.70;;;19.43;;
7021;SDS011;3552;42.664;23.406;2022-07-29T04:26:23;33.23;;;23.60;;
7021;SDS011;3552;42.664;23.406;2022-07-29T04:28:50;32.77;;;21.20;;
7021;SDS011;3552;42.664;23.406;2022-07-29T04:31:17;23.80;;;16.30;;
7021;SDS011;3552;42.664;23.406;2022-07-29T04:33:44;18.27;;;13.60;;
7021;SDS011;3552;42.664;23.406;2022-07-29T04:36:11;17.13;;;12.03;;
7021;SDS011;3552;42.664;23.406;2022-07-29T04:38:38;20.40;;;12.83;;
7021;SDS011;3552;42.664;23.406;2022-07-29T04:41:08;18.37;;;14.23;;
7021;SDS011;3552;42.664;23.406;2022-07-29T04:43:36;23.60;;;15.60;;
7021;SDS011;3552;42.664;23.406;2022-07-29T04:46:03;31.87;;;16.17;;
7021;SDS011;3552;42.664;23.406;2022-07-29T04:48:32;28.20;;;15.90;;
7021;SDS011;3552;42.664;23.406;2022-07-29T04:51:00;27.90;;;17.37;;
7021;SDS011;3552;42.664;23.406;2022-07-29T04:53:27;22.90;;;16.90;;
7021;SDS011;3552;42.664;23.406;2022-07-29T04:55:54;24.17;;;16.63;;
7021;SDS011;3552;42.664;23.406;2022-07-29T04:58:23;24.27;;;16.70;;
7021;SDS011;3552;42.664;23.406;2022-07-29T05:00:50;21.23;;;14.13;;
7021;SDS011;3552;42.664;23.406;2022-07-29T05:03:18;17.37;;;13.63;;
7021;SDS011;3552;42.664;23.406;2022-07-29T05:05:45;19.47;;;14.20;;
7021;SDS011;3552;42.664;23.406;2022-07-29T05:08:13;17.23;;;14.47;;
7021;SDS011;3552;42.664;23.406;2022-07-29T05:10:40;16.70;;;12.70;;
7021;SDS011;3552;42.664;23.406;2022-07-29T05:13:07;16.73;;;11.40;;
7021;SDS011;3552;42.664;23.406;2022-07-29T05:15:36;13.17;;;9.23;;
7021;SDS011;3552;42.664;23.406;2022-07-29T05:18:04;11.87;;;9.00;;
7021;SDS011;3552;42.664;23.406;2022-07-29T05:20:32;14.37;;;8.57;;
7021;SDS011;3552;42.664;23.406;2022-07-29T05:23:00;13.97;;;7.93;;
7021;SDS011;3552;42.664;23.406;2022-07-29T05:25:28;10.17;;;8.23;;
7021;SDS011;3552;42.664;23.406;2022-07-29T05:27:55;11.43;;;7.57;;
7021;SDS011;3552;42.664;23.406;2022-07-29T05:30:22;13.13;;;6.80;;
7021;SDS011;3552;42.664;23.406;2022-07-29T05:32:53;11.87;;;7.10;;
7021;SDS011;3552;42.664;23.406;2022-07-29T05:35:22;8.50;;;6.93;;
7021;SDS011;3552;42.664;23.406;2022-07-29T05:37:49;10.90;;;6.93;;
7021;SDS011;3552;42.664;23.406;2022-07-29T05:40:16;7.83;;;7.03;;
7021;SDS011;3552;42.664;23.406;2022-07-29T05:42:43;9.37;;;6.57;;
7021;SDS011;3552;42.664;23.406;2022-07-29T05:45:10;8.13;;;6.33;;
7021;SDS011;3552;42.664;23.406;2022-07-29T05:47:38;10.67;;;6.23;;
7021;SDS011;3552;42.664;23.406;2022-07-29T05:50:08;9.33;;;6.60;;
7021;SDS011;3552;42.664;23.406;2022-07-29T05:52:36;8.23;;;6.20;;
7021;SDS011;3552;42.664;23.406;2022-07-29T05:55:04;9.67;;;6.00;;
7021;SDS011;3552;42.664;23.406;2022-07-29T05:57:32;9.23;;;5.93;;
7021;SDS011;3552;42.664;23.406;2022-07-29T06:00:00;10.00;;;6.10;;
7021;SDS011;3552;42.664;23.406;2022-07-29T06:02:28;7.73;;;6.53;;
7021;SDS011;3552;42.664;23.406;2022-07-29T06:04:55;9.67;;;6.40;;
7021;SDS011;3552;42.664;23.406;2022-07-29T06:07:24;8.70;;;7.07;;
7021;SDS011;3552;42.664;23.406;2022-07-29T06:09:53;10.83;;;6.50;;
7021;SDS011;3552;42.664;23.406;2022-07-29T06:12:20;8.97;;;6.90;;
7021;SDS011;3552;42.664;23.406;2022-07-29T06:14:47;10.33;;;7.07;;
7021;SDS011;3552;42.664;23.406;2022-07-29T06:17:15;13.10;;;7.10;;
7021;SDS011;3552;42.664;23.406;2022-07-29T06:19:42;8.53;;;6.67;;
7021;SDS011;3552;42.664;23.406;2022-07-29T06:22:11;11.23;;;7.00;;
7021;SDS011;3552;42.664;23.406;2022-07-29T06:24:41;7.33;;;6.57;;
7021;SDS011;3552;42.664;23.406;2022-07-29T06:27:09;10.23;;;6.10;;
7021;SDS011;3552;42.664;23.406;2022-07-29T06:29:36;8.70;;;6.50;;
7021;SDS011;3552;42.664;23.406;2022-07-29T06:32:04;10.43;;;6.93;;
7021;SDS011;3552;42.664;23.406;2022-07-29T06:34:34;12.97;;;6.90;;
7021;SDS011;3552;42.664;23.406;2022-07-29T06:37:05;8.80;;;6.20;;
7021;SDS011;3552;42.664;23.406;2022-07-29T06:39:33;7.33;;;5.67;;
7021;SDS011;3552;42.664;23.406;2022-07-29T06:42:03;12.90;;;5.80;;
7021;SDS011;3552;42.664;23.406;2022-07-29T06:44:31;9.93;;;5.53;;
7021;SDS011;3552;42.664;23.406;2022-07-29T06:46:59;6.77;;;5.50;;
7021;SDS011;3552;42.664;23.406;2022-07-29T06:49:27;8.63;;;5.27;;
7021;SDS011;3552;42.664;23.406;2022-07-29T06:51:54;8.87;;;5.10;;
7021;SDS011;3552;42.664;23.406;2022-07-29T06:54:21;8.20;;;4.97;;
7021;SDS011;3552;42.664;23.406;2022-07-29T06:56:48;7.60;;;5.13;;
7021;SDS011;3552;42.664;23.406;2022-07-29T06:59:17;6.97;;;5.13;;
7021;SDS011;3552;42.664;23.406;2022-07-29T07:01:43;4.97;;;4.47;;
7021;SDS011;3552;42.664;23.406;2022-07-29T07:04:11;6.00;;;4.37;;
7021;SDS011;3552;42.664;23.406;2022-07-29T07:06:38;8.17;;;5.03;;
7021;SDS011;3552;42.664;23.406;2022-07-29T07:09:06;7.53;;;4.70;;
7021;SDS011;3552;42.664;23.406;2022-07-29T07:11:34;6.20;;;4.50;;
7021;SDS011;3552;42.664;23.406;2022-07-29T07:14:02;8.20;;;4.07;;
7021;SDS011;3552;42.664;23.406;2022-07-29T07:16:32;5.00;;;4.10;;
7021;SDS011;3552;42.664;23.406;2022-07-29T07:18:59;12.10;;;4.60;;
7021;SDS011;3552;42.664;23.406;2022-07-29T07:21:27;9.47;;;4.30;;
7021;SDS011;3552;42.664;23.406;2022-07-29T07:23:55;13.43;;;4.73;;
7021;SDS011;3552;42.664;23.406;2022-07-29T07:26:23;6.27;;;4.33;;
7021;SDS011;3552;42.664;23.406;2022-07-29T07:28:50;6.73;;;4.40;;
7021;SDS011;3552;42.664;23.406;2022-07-29T07:31:19;7.37;;;4.40;;
7021;SDS011;3552;42.664;23.406;2022-07-29T07:33:50;8.57;;;4.13;;
7021;SDS011;3552;42.664;23.406;2022-07-29T07:36:18;5.43;;;3.93;;
7021;SDS011;3552;42.664;23.406;2022-07-29T07:38:45;4.97;;;4.07;;
7021;SDS011;3552;42.664;23.406;2022-07-29T07:41:13;8.40;;;4.23;;
7021;SDS011;3552;42.664;23.406;2022-07-29T07:43:41;4.90;;;3.83;;
7021;SDS011;3552;42.664;23.406;2022-07-29T07:46:09;8.00;;;4.60;;
7021;SDS011;3552;42.664;23.406;2022-07-29T07:48:37;6.70;;;4.27;;
7021;SDS011;3552;42.664;23.406;2022-07-29T07:51:06;7.87;;;4.00;;
7021;SDS011;3552;42.664;23.406;2022-07-29T07:53:33;4.10;;;3.60;;
7021;SDS011;3552;42.664;23.406;2022-07-29T07:56:00;5.50;;;4.10;;
7021;SDS011;3552;42.664;23.406;2022-07-29T07:58:27;4.77;;;3.97;;
7021;SDS011;3552;42.664;23.406;2022-07-29T08:00:56;8.03;;;3.60;;
7021;SDS011;3552;42.664;23.406;2022-07-29T08:03:24;4.60;;;3.70;;
7021;SDS011;3552;42.664;23.406;2022-07-29T08:05:51;4.83;;;3.77;;
7021;SDS011;3552;42.664;23.406;2022-07-29T08:08:20;7.60;;;3.50;;
7021;SDS011;3552;42.664;23.406;2022-07-29T08:10:49;6.87;;;3.40;;
7021;SDS011;3552;42.664;23.406;2022-07-29T08:13:22;8.40;;;3.67;;
7021;SDS011;3552;42.664;23.406;2022-07-29T08:15:50;4.53;;;3.40;;
7021;SDS011;3552;42.664;23.406;2022-07-29T08:18:23;3.80;;;3.40;;
7021;SDS011;3552;42.664;23.406;2022-07-29T08:20:50;3.97;;;3.30;;
7021;SDS011;3552;42.664;23.406;2022-07-29T08:23:18;5.67;;;3.53;;
7021;SDS011;3552;42.664;23.406;2022-07-29T08:25:47;4.00;;;3.60;;
7021;SDS011;3552;42.664;23.406;2022-07-29T08:28:13;6.87;;;3.70;;
7021;SDS011;3552;42.664;23.406;2022-07-29T08:30:40;7.63;;;3.27;;
7021;SDS011;3552;42.664;23.406;2022-07-29T08:33:08;6.70;;;3.10;;
7021;SDS011;3552;42.664;23.406;2022-07-29T08:35:35;4.97;;;3.33;;
7021;SDS011;3552;42.664;23.406;2022-07-29T08:38:02;5.53;;;3.37;;
7021;SDS011;3552;42.664;23.406;2022-07-29T08:40:30;3.80;;;3.40;;
7021;SDS011;3552;42.664;23.406;2022-07-29T08:42:59;8.53;;;3.13;;
7021;SDS011;3552;42.664;23.406;2022-07-29T08:45:30;9.90;;;3.97;;
7021;SDS011;3552;42.664;23.406;2022-07-29T08:48:07;4.50;;;3.20;;
7021;SDS011;3552;42.664;23.406;2022-07-29T08:50:35;5.27;;;3.00;;
7021;SDS011;3552;42.664;23.406;2022-07-29T08:53:04;5.17;;;3.10;;
7021;SDS011;3552;42.664;23.406;2022-07-29T08:55:32;5.07;;;3.10;;
7021;SDS011;3552;42.664;23.406;2022-07-29T08:58:05;4.47;;;3.10;;
7021;SDS011;3552;42.664;23.406;2022-07-29T09:00:33;7.50;;;3.13;;
7021;SDS011;3552;42.664;23.406;2022-07-29T09:03:02;9.50;;;3.20;;
7021;SDS011;3552;42.664;23.406;2022-07-29T09:05:31;3.80;;;3.17;;
7021;SDS011;3552;42.664;23.406;2022-07-29T09:08:01;3.67;;;3.10;;
7021;SDS011;3552;42.664;23.406;2022-07-29T09:10:29;5.23;;;3.30;;
7021;SDS011;3552;42.664;23.406;2022-07-29T09:12:56;3.73;;;3.37;;
7021;SDS011;3552;42.664;23.406;2022-07-29T09:15:26;5.67;;;3.40;;
7021;SDS011;3552;42.664;23.406;2022-07-29T09:17:53;5.70;;;3.80;;
7021;SDS011;3552;42.664;23.406;2022-07-29T09:20:24;5.13;;;3.60;;
7021;SDS011;3552;42.664;23.406;2022-07-29T09:22:52;8.47;;;3.73;;
7021;SDS011;3552;42.664;23.406;2022-07-29T09:25:31;4.67;;;3.30;;
7021;SDS011;3552;42.664;23.406;2022-07-29T09:28:05;6.97;;;4.10;;
7021;SDS011;3552;42.664;23.406;2022-07-29T09:30:36;6.33;;;3.97;;
7021;SDS011;3552;42.664;23.406;2022-07-29T09:33:16;5.40;;;3.87;;
7021;SDS011;3552;42.664;23.406;2022-07-29T09:35:43;6.73;;;3.27;;
7021;SDS011;3552;42.664;23.406;2022-07-29T09:38:12;6.60;;;4.33;;
7021;SDS011;3552;42.664;23.406;2022-07-29T09:40:40;7.50;;;4.03;;
7021;SDS011;3552;42.664;23.406;2022-07-29T09:43:10;6.83;;;3.50;;
7021;SDS011;3552;42.664;23.406;2022-07-29T09:45:40;7.73;;;3.50;;
7021;SDS011;3552;42.664;23.406;2022-07-29T09:48:14;7.40;;;3.50;;
7021;SDS011;3552;42.664;23.406;2022-07-29T09:50:43;3.90;;;3.00;;
7021;SDS011;3552;42.664;23.406;2022-07-29T09:53:12;6.47;;;3.37;;
7021;SDS011;3552;42.664;23.406;2022-07-29T09:55:56;5.33;;;3.40;;
7021;SDS011;3552;42.664;23.406;2022-07-29T09:58:23;7.37;;;3.17;;
7021;SDS011;3552;42.664;23.406;2022-07-29T10:00:53;4.37;;;3.17;;
7021;SDS011;3552;42.664;23.406;2022-07-29T10:03:22;6.50;;;3.30;;
7021;SDS011;3552;42.664;23.406;2022-07-29T10:06:03;9.57;;;3.47;;
7021;SDS011;3552;42.664;23.406;2022-07-29T10:08:33;5.53;;;3.00;;
7021;SDS011;3552;42.664;23.406;2022-07-29T10:11:10;4.20;;;3.03;;
7021;SDS011;3552;42.664;23.406;2022-07-29T10:13:40;6.80;;;3.20;;
7021;SDS011;3552;42.664;23.406;2022-07-29T10:16:10;4.03;;;3.10;;
7021;SDS011;3552;42.664;23.406;2022-07-29T10:18:39;3.90;;;3.50;;
7021;SDS011;3552;42.664;23.406;2022-07-29T10:21:08;6.10;;;3.17;;
7021;SDS011;3552;42.664;23.406;2022-07-29T10:23:38;4.67;;;3.10;;
7021;SDS011;3552;42.664;23.406;2022-07-29T10:26:07;6.67;;;3.27;;
7021;SDS011;3552;42.664;23.406;2022-07-29T10:28:36;4.87;;;2.80;;
7021;SDS011;3552;42.664;23.406;2022-07-29T10:31:04;7.03;;;3.10;;
7021;SDS011;3552;42.664;23.406;2022-07-29T10:33:38;6.47;;;3.47;;
7021;SDS011;3552;42.664;23.406;2022-07-29T10:36:21;4.87;;;3.37;;
7021;SDS011;3552;42.664;23.406;2022-07-29T10:39:00;7.00;;;3.63;;
7021;SDS011;3552;42.664;23.406;2022-07-29T10:41:47;6.43;;;3.80;;
7021;SDS011;3552;42.664;23.406;2022-07-29T10:44:26;3.57;;;3.07;;
7021;SDS011;3552;42.664;23.406;2022-07-29T10:46:55;3.67;;;3.33;;
7021;SDS011;3552;42.664;23.406;2022-07-29T10:49:24;4.00;;;3.60;;
7021;SDS011;3552;42.664;23.406;2022-07-29T10:51:57;4.33;;;3.53;;
7021;SDS011;3552;42.664;23.406;2022-07-29T10:54:39;5.03;;;3.87;;
7021;SDS011;3552;42.664;23.406;2022-07-29T10:57:14;3.67;;;3.37;;
7021;SDS011;3552;42.664;23.406;2022-07-29T10:59:45;6.93;;;3.57;;
7021;SDS011;3552;42.664;23.406;2022-07-29T11:05:10;6.33;;;3.60;;
7021;SDS011;3552;42.664;23.406;2022-07-29T11:07:38;3.93;;;3.57;;
7021;SDS011;3552;42.664;23.406;2022-07-29T11:10:27;4.63;;;4.07;;
7021;SDS011;3552;42.664;23.406;2022-07-29T11:12:54;6.57;;;4.10;;
7021;SDS011;3552;42.664;23.406;2022-07-29T11:15:21;4.93;;;3.80;;
7021;SDS011;3552;42.664;23.406;2022-07-29T11:18:07;7.10;;;4.00;;
7021;SDS011;3552;42.664;23.406;2022-07-29T11:20:36;4.50;;;4.10;;
7021;SDS011;3552;42.664;23.406;2022-07-29T11:23:17;5.03;;;4.00;;
7021;SDS011;3552;42.664;23.406;2022-07-29T11:25:47;4.60;;;3.97;;
7021;SDS011;3552;42.664;23.406;2022-07-29T11:28:52;7.50;;;4.60;;
7021;SDS011;3552;42.664;23.406;2022-07-29T11:31:33;4.43;;;4.03;;
7021;SDS011;3552;42.664;23.406;2022-07-29T11:34:18;7.23;;;4.10;;
7021;SDS011;3552;42.664;23.406;2022-07-29T11:42:52;6.57;;;4.10;;
7021;SDS011;3552;42.664;23.406;2022-07-29T11:45:44;7.27;;;3.80;;
7021;SDS011;3552;42.664;23.406;2022-07-29T11:48:15;4.90;;;4.30;;
7021;SDS011;3552;42.664;23.406;2022-07-29T11:50:43;6.43;;;4.60;;
7021;SDS011;3552;42.664;23.406;2022-07-29T11:53:11;6.90;;;4.40;;
7021;SDS011;3552;42.664;23.406;2022-07-29T11:55:39;7.23;;;4.37;;
7021;SDS011;3552;42.664;23.406;2022-07-29T11:58:09;5.10;;;4.23;;
7021;SDS011;3552;42.664;23.406;2022-07-29T12:00:38;7.90;;;4.83;;
7021;SDS011;3552;42.664;23.406;2022-07-29T12:03:08;8.77;;;4.60;;
7021;SDS011;3552;42.664;23.406;2022-07-29T12:05:37;4.17;;;3.70;;
7021;SDS011;3552;42.664;23.406;2022-07-29T12:08:13;5.17;;;3.90;;
7021;SDS011;3552;42.664;23.406;2022-07-29T12:10:41;5.00;;;4.50;;
7021;SDS011;3552;42.664;23.406;2022-07-29T12:13:11;6.17;;;4.07;;
7021;SDS011;3552;42.664;23.406;2022-07-29T12:15:39;4.53;;;4.10;;
7021;SDS011;3552;42.664;23.406;2022-07-29T12:18:10;5.03;;;4.07;;
7021;SDS011;3552;42.664;23.406;2022-07-29T12:20:38;5.53;;;4.40;;
7021;SDS011;3552;42.664;23.406;2022-07-29T12:23:05;6.13;;;5.10;;
7021;SDS011;3552;42.664;23.406;2022-07-29T12:25:34;5.47;;;4.93;;
7021;SDS011;3552;42.664;23.406;2022-07-29T12:28:04;6.40;;;4.63;;
7021;SDS011;3552;42.664;23.406;2022-07-29T12:30:38;8.87;;;5.07;;
7021;SDS011;3552;42.664;23.406;2022-07-29T12:33:10;6.50;;;5.03;;
7021;SDS011;3552;42.664;23.406;2022-07-29T12:35:47;5.70;;;4.97;;
7021;SDS011;3552;42.664;23.406;2022-07-29T12:38:16;6.13;;;4.93;;
7021;SDS011;3552;42.664;23.406;2022-07-29T12:40:44;8.17;;;4.90;;
7021;SDS011;3552;42.664;23.406;2022-07-29T12:43:14;9.07;;;5.50;;
7021;SDS011;3552;42.664;23.406;2022-07-29T12:45:46;7.23;;;4.90;;
7021;SDS011;3552;42.664;23.406;2022-07-29T12:48:15;6.47;;;4.93;;
7021;SDS011;3552;42.664;23.406;2022-07-29T12:50:53;11.40;;;5.30;;
7021;SDS011;3552;42.664;23.406;2022-07-29T12:53:22;6.40;;;5.20;;
7021;SDS011;3552;42.664;23.406;2022-07-29T12:55:51;6.70;;;5.20;;
7021;SDS011;3552;42.664;23.406;2022-07-29T12:58:25;9.37;;;5.17;;
7021;SDS011;3552;42.664;23.406;2022-07-29T13:01:02;12.90;;;5.07;;
7021;SDS011;3552;42.664;23.406;2022-07-29T13:03:41;17.33;;;5.70;;
7021;SDS011;3552;42.664;23.406;2022-07-29T13:09:02;7.27;;;4.70;;
7021;SDS011;3552;42.664;23.406;2022-07-29T13:11:33;8.40;;;5.10;;
7021;SDS011;3552;42.664;23.406;2022-07-29T13:14:01;9.70;;;5.47;;
7021;SDS011;3552;42.664;23.406;2022-07-29T13:16:30;9.37;;;4.50;;
7021;SDS011;3552;42.664;23.406;2022-07-29T13:19:08;5.30;;;4.30;;
7021;SDS011;3552;42.664;23.406;2022-07-29T13:21:37;10.77;;;4.57;;
7021;SDS011;3552;42.664;23.406;2022-07-29T13:24:06;9.93;;;4.70;;
7021;SDS011;3552;42.664;23.406;2022-07-29T13:26:33;10.17;;;4.50;;
7021;SDS011;3552;42.664;23.406;2022-07-29T13:29:02;4.83;;;4.43;;
7021;SDS011;3552;42.664;23.406;2022-07-29T13:31:29;5.63;;;4.67;;
7021;SDS011;3552;42.664;23.406;2022-07-29T13:33:58;6.93;;;4.70;;
7021;SDS011;3552;42.664;23.406;2022-07-29T13:36:25;7.87;;;4.70;;
7021;SDS011;3552;42.664;23.406;2022-07-29T13:38:53;12.57;;;4.17;;
7021;SDS011;3552;42.664;23.406;2022-07-29T13:41:20;6.57;;;4.30;;
7021;SDS011;3552;42.664;23.406;2022-07-29T13:43:49;8.47;;;5.03;;
7021;SDS011;3552;42.664;23.406;2022-07-29T13:46:16;5.20;;;4.70;;
7021;SDS011;3552;42.664;23.406;2022-07-29T13:48:45;5.20;;;4.70;;
7021;SDS011;3552;42.664;23.406;2022-07-29T13:51:12;6.53;;;5.20;;
7021;SDS011;3552;42.664;23.406;2022-07-29T13:53:39;6.17;;;4.40;;
7021;SDS011;3552;42.664;23.406;2022-07-29T13:56:06;11.33;;;4.93;;
7021;SDS011;3552;42.664;23.406;2022-07-29T13:58:33;12.00;;;4.80;;
7021;SDS011;3552;42.664;23.406;2022-07-29T14:01:01;10.57;;;4.60;;
7021;SDS011;3552;42.664;23.406;2022-07-29T14:03:28;5.33;;;4.83;;
7021;SDS011;3552;42.664;23.406;2022-07-29T14:05:59;8.67;;;4.30;;
7021;SDS011;3552;42.664;23.406;2022-07-29T14:08:26;7.60;;;4.80;;
7021;SDS011;3552;42.664;23.406;2022-07-29T14:10:53;6.70;;;4.60;;
7021;SDS011;3552;42.664;23.406;2022-07-29T14:13:21;8.00;;;5.20;;
7021;SDS011;3552;42.664;23.406;2022-07-29T14:15:49;5.20;;;4.70;;
7021;SDS011;3552;42.664;23.406;2022-07-29T14:18:17;5.17;;;4.63;;
7021;SDS011;3552;42.664;23.406;2022-07-29T14:20:44;5.50;;;4.97;;
7021;SDS011;3552;42.664;23.406;2022-07-29T14:23:13;7.70;;;5.53;;
7021;SDS011;3552;42.664;23.406;2022-07-29T14:25:40;9.17;;;5.07;;
7021;SDS011;3552;42.664;23.406;2022-07-29T14:28:07;6.00;;;5.00;;
7021;SDS011;3552;42.664;23.406;2022-07-29T14:30:34;5.23;;;4.83;;
7021;SDS011;3552;42.664;23.406;2022-07-29T14:33:01;11.73;;;4.77;;
7021;SDS011;3552;42.664;23.406;2022-07-29T14:35:28;7.03;;;5.80;;
7021;SDS011;3552;42.664;23.406;2022-07-29T14:37:56;6.70;;;4.90;;
7021;SDS011;3552;42.664;23.406;2022-07-29T14:40:25;7.10;;;5.30;;
7021;SDS011;3552;42.664;23.406;2022-07-29T14:42:52;10.17;;;5.10;;
7021;SDS011;3552;42.664;23.406;2022-07-29T14:45:19;6.67;;;5.33;;
7021;SDS011;3552;42.664;23.406;2022-07-29T14:47:46;5.70;;;5.20;;
7021;SDS011;3552;42.664;23.406;2022-07-29T14:50:14;9.80;;;5.37;;
7021;SDS011;3552;42.664;23.406;2022-07-29T14:52:42;6.37;;;5.57;;
7021;SDS011;3552;42.664;23.406;2022-07-29T14:55:09;6.57;;;4.80;;
7021;SDS011;3552;42.664;23.406;2022-07-29T14:57:38;8.17;;;5.03;;
7021;SDS011;3552;42.664;23.406;2022-07-29T15:00:06;7.70;;;5.20;;
7021;SDS011;3552;42.664;23.406;2022-07-29T15:02:35;9.57;;;5.20;;
7021;SDS011;3552;42.664;23.406;2022-07-29T15:05:03;7.37;;;5.30;;
7021;SDS011;3552;42.664;23.406;2022-07-29T15:07:32;6.40;;;5.30;;
7021;SDS011;3552;42.664;23.406;2022-07-29T15:09:58;7.43;;;5.10;;
7021;SDS011;3552;42.664;23.406;2022-07-29T15:12:26;10.30;;;5.30;;
7021;SDS011;3552;42.664;23.406;2022-07-29T15:14:58;7.10;;;5.10;;
7021;SDS011;3552;42.664;23.406;2022-07-29T15:17:25;7.73;;;5.50;;
7021;SDS011;3552;42.664;23.406;2022-07-29T15:19:52;6.67;;;5.00;;